Alvarado, Minnesota
Current Conditions -  °F | °C
As of 6:53 AM on Wednesday 22 Oct 2014 (Local Time) from KGFK Reporting Station
Scattered Clouds Scattered Clouds  
Wind Chill: 12°   Ceiling: Unl
Heat Index: 12°   Visibility: 10mi
Dew Point:   Wind: 22mph
Humidity: 64%   Direction: 160°SSE
Pressure: 29.8"   Gusts: 29mph
Location:  48.19°N, 97°W
Report Text: KGFK 221153Z 16019G25KT 10SM SCT150 12/06 A2980 RMK AO2 PK WND 16027/1123 SLP093 60000 T01220056 10128 20122 58004
Loading
Personal Weather Stations






























Interactive Weather Map New forecast layout! Learn more

10-Day Weather Forecast

Advertisements
Track Severe Weather on mobile